• Join FlightAware (Why Join?)
  • Login
  • US Flag 
03:41PM EDT


 

Airport Tracker/Info


-or-


 

Live Flight TrackerFlight Track Log ✈ QJE1704 ✈ 22-Apr-2013 ✈ YBBN / BNE - YGLA / GLT

Flight Track Log - Related Links

Times and Time Zones

All times are in EDT time to prevent confusion due to time zone crossing. See the QJE1704 flight status page for this flight to view local times or setup timezone preferences in your user account.

Time Position Orientation Groundspeed Altitude Reporting Facility
EDT Latitude Longitude Course Direction KTS MPH feet Rate Location/Type
07:03PM -27.4180 153.1094 231° Southwest 4,000  Level Aus ATC (Calculated)
07:05PM -27.4854 153.0151 North 222 255 6,800 1,560 Climbing Aus ATC (RADAR)
07:07PM -27.3860 153.0232 North 296 341 9,900 1,860 Climbing Aus ATC (RADAR)
07:08PM -27.2332 153.0776 18° North 376 433 12,500 1,860 Climbing Aus ATC (RADAR)
07:10PM -27.0278 153.1504 18° North 412 474 16,700 2,040 Climbing Aus ATC (RADAR)
07:12PM -26.8264 153.1125 350° North 394 453 20,400 1,800 Climbing Aus ATC (RADAR)
07:13PM -26.7003 153.0415 333° Northwest 403 464 22,500 1,560 Climbing Aus ATC (RADAR)
07:15PM -26.5358 152.9472 333° Northwest 421 484 24,800 1,440 Climbing Aus ATC (RADAR)
07:17PM -26.3511 152.8428 333° Northwest 421 484 27,400 1,320 Climbing Aus ATC (RADAR)
07:19PM -26.1415 152.7257 333° Northwest 418 481 29,800 1,200 Climbing Aus ATC (RADAR)
07:21PM -25.9511 152.6197 333° Northwest 408 470 32,100 600 Climbing Aus ATC (RADAR)
07:22PM -25.7590 152.5101 333° Northwest 403 464 32,100  Level Aus ATC (RADAR)
07:24PM -25.6233 152.4346 333° Northwest 408 470 32,100  Level Aus ATC (RADAR)
07:25PM -25.4698 152.3491 333° Northwest 410 472 32,100  Level Aus ATC (RADAR)
07:27PM -25.3245 152.2698 334° Northwest 411 473 32,100  Level Aus ATC (RADAR)
07:27PM -25.2989 152.2556 333° Northwest 411 473 32,100  Level Aus ATC (RADAR)
07:29PM -25.1354 152.1653 333° Northwest 414 476 32,100 -900 Level Aus ATC (RADAR)
07:31PM -24.8709 151.9808 328° Northwest 411 473 28,300 -1,980 Descending Aus ATC (RADAR)
07:33PM -24.7406 151.8817 325° Northwest 396 456 24,100 -2,940 Descending Aus ATC (RADAR)
07:33PM -24.7123 151.8582 323° Northwest 388 447 23,200 -2,700 Descending Aus ATC (RADAR)
07:35PM -24.5749 151.7506 325° Northwest 385 443 19,000 -2,520 Descending Aus ATC (RADAR)
07:37PM -24.3495 151.5760 325° Northwest 353 406 12,400 -2,040 Descending Aus ATC (RADAR)
07:39PM -24.2372 151.4901 325° Northwest 306 352 10,600 -1,440 Descending Aus ATC (RADAR)
07:40PM -24.1330 151.4086 324° Northwest 290 334 8,100 -1,560 Descending Aus ATC (RADAR)
07:42PM -24.0237 151.3582 337° Northwest 285 328 5,800 -1,440 Descending Aus ATC (RADAR)
07:43PM -23.9371 151.3020 329° Northwest 268 308 4,000 -1,080 Descending Aus ATC (RADAR)
07:45PM -23.8505 151.2496 331° Northwest 210 242 2,800 -720 Descending Aus ATC (RADAR)
07:46PM -23.8187 151.1774 296° West 161 185 1,800 -720 Descending Aus ATC (RADAR)
07:48PM -23.8570 151.1849 170° South 147 169 700 -840 Descending Aus ATC (RADAR)
07:49PM -23.8663 151.2113 111° Southeast 141 162 100 -900 Descending Aus ATC (RADAR)
07:50PM -23.8697 151.2228 108° East  Level Estimated
07:57PM -23.8697 151.2228 222° Southwest  Level Estimated
07:58PM -23.8697 151.2228 222° Southwest  Level Estimated
07:59PM -23.8697 151.2228 222° Southwest  Level Estimated
08:00PM -23.8697 151.2228 222° Southwest  Level Estimated
08:01PM -23.8697 151.2228 222° Southwest  Level Estimated
08:02PM -23.8697 151.2228 222° Southwest  Level Estimated
08:03PM -23.8697 151.2228 222° Southwest  Level Estimated